Historyczne dane pomiarowe

Dodano dane terminowe – wersja testowa.

Dane z okresu 1951-2019

Wersja bazy: 1.34 [2019-03-16, lista zmian], aktualizacja planowana na 2019-04-15

Dane meteo z obszaru Polski uzyskane na podstawie danych udostępnionych przez Instytut Meteorologii i Gospodarki Wodnej – Państwowy Instytut Badawczy.

 

Wybierz Datę:    

       

TemperaturaWilgotnośćWiatrCiśnienieOpadyŚniegCzas trwania zjawisk
 Stacja t tx tn tng RH VA  wxwx mslp ppp RRR   cm mm wxwxwxwxwxwxwx
1994-08-14 17.4 19.4 14.3--- 4.3 2.7---- 0.0------------
1994-08-13 19.2 21.5 16.8--- 6.7 2.7---- 2.2------------
1994-08-12 19.0 21.0 18.3--- 6.7 1.7---- 0.0------------
1994-08-11 20.6 24.2 17.8--- 5.0 1.3---- 4.5------------
1994-08-10 21.7 25.5 17.8--- 3.0 2.0---- 0.0------------
1994-08-09 21.8 28.0 18.3--- 5.7 1.0---- 19.5------------
1994-08-08 23.3 29.1 20.4--- 4.3 1.3---- 6.0------------
1994-08-07 25.2 31.0 18.9--- 1.3 1.3---- 0.0------------
1994-08-06 25.9 32.0 17.9--- 1.0 0.0---- 0.0------------
1994-08-05 26.0 31.5 19.9--- 1.0 0.3---- 0.0------------
1994-08-04 24.9 31.0 19.9--- 1.7 1.0---- 0.0------------
1994-08-03 28.4 32.5 22.9--- 1.0 0.3---- 0.2------------
1994-08-02 27.8 34.0 20.9--- 0.7 0.0---- 0.0------------
1994-08-01 28.4 35.0 20.9--- 0.3 0.7---- 0.0------------
1994-07-31 28.1 35.4 21.9--- 0.7 0.7---- 0.0------------
1994-07-30 28.5 34.0 19.9--- 1.3 0.7---- 0.0------------
1994-07-29 28.5 34.0 19.9--- 1.0 0.0---- 0.0------------
1994-07-28 28.7 33.0 19.4--- 0.7 0.0---- 0.0------------
1994-07-27 26.3 33.0 17.8--- 0.3 0.0---- 0.0------------
1994-07-26 26.8 32.0 20.1--- 0.3 0.0---- 0.0------------
1994-07-25 24.6 31.0 18.9--- 0.0 0.0---- 0.0------------
1994-07-24 23.9 30.0 16.8--- 0.7 0.0---- 0.0------------
1994-07-23 23.3 28.0 16.8--- 0.0 0.0---- 0.0------------
1994-07-22 21.5 26.0 14.8--- 0.7 0.3---- 0.0------------
1994-07-21 21.0 26.0 13.2--- 0.7 0.3---- 0.0------------
1994-07-20 18.9 24.0 12.7--- 0.7 0.7---- 0.0------------
1994-07-19 20.1 23.6 16.8--- 3.3 1.0---- 0.0------------
1994-07-18 21.3 28.0 18.9--- 6.0 1.0---- 3.8------------
1994-07-17 23.3 30.0 17.8--- 2.7 1.0---- 1.3------------
1994-07-16 25.5 31.5 17.8--- 0.0 0.0---- 0.0------------
1994-07-15 24.8 29.0 18.9--- 0.7 1.0---- 0.0------------
1994-07-14 24.9 30.0 19.9--- 1.7 1.0---- 0.0------------
1994-07-13 23.8 30.0 16.8--- 1.7 1.7---- 0.0------------
1994-07-12 23.1 28.0 16.8--- 2.7 2.7---- 0.0------------
1994-07-11 18.5 20.9 14.8--- 3.3 3.0---- 0.0------------
1994-07-10 16.3 23.0 11.7--- 6.0 2.0---- 1.1------------
1994-07-09 15.4 19.1 12.7--- 7.3 3.7---- 2.8------------
1994-07-08 19.2 22.0 17.3--- 5.3 2.3---- 0.0------------
1994-07-07 19.2 23.5 14.8--- 3.7 0.7---- 0.1------------
1994-07-06 20.5 24.5 12.7--- 1.3 0.7---- 0.0------------
1994-07-05 21.1 26.0 14.8--- 1.7 1.7---- 0.0------------
1994-07-04 21.6 25.5 17.8--- 0.7 0.3---- 0.0------------
1994-07-03 18.2 23.5 12.2--- 0.7 0.3---- 0.0------------
1994-07-02 18.6 22.0 12.7--- 1.7 2.7---- 0.0------------
1994-07-01 19.8 25.0 14.8--- 2.0 2.3---- 0.0------------
1994-06-30 25.0 30.6 19.4--- 2.7 3.7---- 0.0------------
1994-06-29 25.2 30.5 17.8--- 0.3 0.3---- 0.0------------
1994-06-28 24.8 28.5 19.9--- 1.3 1.0---- 0.0------------
1994-06-27 24.3 30.0 18.9--- 0.7 1.0---- 0.0------------
1994-06-26 21.2 28.5 12.7--- 1.3 1.3---- 0.0------------
1994-06-25 16.4 22.5 7.7--- 1.7 2.7---- 0.0------------
1994-06-24 14.3 18.9 8.7--- 2.3 3.7---- 0.0------------
1994-06-23 18.7 23.0 16.8--- 3.0 3.7---- 0.0------------
1994-06-22 18.6 24.0 9.7--- 2.0 2.0---- 0.0------------
1994-06-21 14.8 18.9 7.8--- 2.3 2.0---- 0.0------------
1994-06-20 16.9 20.4 14.8--- 3.7 5.7---- 0.0------------
1994-06-19 15.8 20.4 12.7--- 5.7 4.0---- 0.0------------
1994-06-18 12.4 17.4 7.7--- 4.7 3.7---- 2.1------------
1994-06-17 12.3 15.3 10.2--- 4.0 2.7---- 0.0------------
1994-06-16 13.0 17.2 8.7--- 4.7 6.7---- 5.8------------
214.4 ms

 

Źródłem pochodzenia danych jest Instytut Meteorologii i Gospodarki Wodnej – Państwowy Instytut Badawczy. Dane Instytutu Meteorologii i Gospodarki Wodnej – Państwowego Instytutu Badawczego zostały przetworzone.

Dane źródłowe można odnaleźć na stronie https://dane.imgw.pl